createdAt,value
2018-08-09T00:01:54.616Z,99.90
2018-08-09T00:04:24.807Z,99.90
2018-08-09T00:06:54.889Z,99.90
2018-08-09T00:09:25.088Z,99.90
2018-08-09T00:11:55.197Z,99.90
2018-08-09T00:14:25.286Z,99.90
2018-08-09T00:16:55.408Z,99.90
2018-08-09T00:24:35.958Z,99.90
2018-08-09T00:27:07.701Z,99.90
2018-08-09T00:29:37.881Z,99.90
2018-08-09T00:32:23.326Z,99.90
2018-08-09T00:34:54.646Z,99.90
2018-08-09T00:37:24.726Z,99.90
2018-08-09T00:39:54.740Z,99.90
2018-08-09T00:42:26.046Z,99.90
2018-08-09T00:44:56.035Z,99.90
2018-08-09T00:47:27.707Z,99.90
2018-08-09T00:49:58.946Z,99.90
2018-08-09T00:52:33.935Z,99.90
2018-08-09T00:55:04.077Z,99.90
2018-08-09T00:57:34.296Z,99.90
2018-08-09T01:00:06.424Z,99.90
2018-08-09T01:02:36.467Z,99.90
2018-08-09T01:05:07.056Z,99.90
2018-08-09T01:07:36.977Z,99.90
2018-08-09T01:10:08.276Z,99.90
2018-08-09T01:12:38.319Z,99.90
2018-08-09T01:15:08.477Z,99.90
2018-08-09T01:17:38.467Z,99.90
2018-08-09T01:20:08.946Z,99.90
2018-08-09T01:22:38.926Z,99.90
2018-08-09T01:25:08.906Z,99.90
2018-08-09T01:27:38.896Z,99.90
2018-08-09T01:30:08.936Z,99.90
2018-08-09T01:32:38.906Z,99.90
2018-08-09T01:35:09.117Z,99.90
2018-08-09T01:37:39.098Z,99.90
2018-08-09T01:40:09.396Z,99.90
2018-08-09T01:42:49.886Z,99.90
2018-08-09T01:45:19.927Z,99.90
2018-08-09T01:47:52.076Z,99.90
2018-08-09T01:50:23.087Z,99.90
2018-08-09T01:52:53.676Z,99.90
2018-08-09T01:55:23.828Z,99.90
2018-08-09T01:57:53.785Z,99.90
2018-08-09T02:00:25.096Z,99.90
2018-08-09T02:02:55.316Z,99.90
2018-08-09T02:05:25.347Z,99.90
2018-08-09T02:07:55.428Z,99.90
2018-08-09T02:10:25.858Z,99.90
2018-08-09T02:12:56.266Z,99.90
2018-08-09T02:15:27.327Z,99.90
2018-08-09T02:17:58.756Z,99.90
2018-08-09T02:20:30.006Z,99.90
2018-08-09T02:23:00.237Z,99.90
2018-08-09T02:25:31.780Z,99.90
2018-08-09T02:28:01.757Z,99.90
2018-08-09T02:30:33.357Z,99.90
2018-08-09T02:35:38.627Z,99.90
2018-08-09T02:38:08.759Z,99.90
2018-08-09T02:40:39.006Z,99.90
2018-08-09T02:43:13.387Z,99.90
2018-08-09T02:45:43.337Z,99.90
2018-08-09T02:48:17.317Z,99.90
2018-08-09T02:50:47.518Z,99.90
2018-08-09T02:55:52.995Z,99.90
2018-08-09T02:58:27.475Z,99.90
2018-08-09T03:00:57.546Z,99.90
2018-08-09T03:03:28.887Z,99.90
2018-08-09T03:06:00.141Z,99.90
2018-08-09T03:08:31.618Z,99.90
2018-08-09T03:11:01.858Z,99.90
2018-08-09T03:13:33.356Z,99.90
2018-08-09T03:16:08.686Z,99.90
2018-08-09T03:18:39.117Z,99.90
2018-08-09T03:23:44.946Z,99.90
2018-08-09T03:26:14.946Z,99.90
2018-08-09T03:28:45.056Z,99.90
2018-08-09T03:31:19.286Z,99.90
2018-08-09T03:33:49.476Z,99.90
2018-08-09T03:36:19.416Z,99.90
2018-08-09T03:38:50.885Z,99.90
2018-08-09T03:41:22.176Z,99.90
2018-08-09T03:43:52.416Z,99.90
2018-08-09T03:46:22.586Z,99.90
2018-08-09T03:48:53.376Z,99.90
2018-08-09T03:51:23.476Z,99.90
2018-08-09T03:53:54.136Z,99.90
2018-08-09T03:56:25.195Z,99.90
2018-08-09T03:58:55.456Z,99.90
2018-08-09T04:01:25.866Z,99.90
2018-08-09T04:03:55.916Z,99.90
2018-08-09T04:06:26.266Z,99.90
2018-08-09T04:08:57.986Z,99.90
2018-08-09T04:11:28.405Z,99.90
2018-08-09T04:13:58.396Z,99.90
2018-08-09T04:16:29.236Z,99.90
2018-08-09T04:18:59.546Z,99.90
2018-08-09T04:21:29.946Z,99.90
2018-08-09T04:24:01.006Z,99.90
2018-08-09T04:26:32.198Z,99.90
2018-08-09T04:29:02.936Z,99.90
2018-08-09T04:31:33.645Z,99.90
2018-08-09T04:34:04.066Z,99.90
2018-08-09T04:36:38.606Z,99.90
2018-08-09T04:39:10.266Z,99.90
2018-08-09T04:41:40.586Z,99.90
2018-08-09T04:44:11.882Z,99.90
2018-08-09T04:46:41.895Z,99.90
2018-08-09T04:49:11.976Z,99.90
2018-08-09T04:51:42.318Z,99.90
2018-08-09T04:54:12.497Z,99.90
2018-08-09T04:56:46.786Z,99.90
2018-08-09T04:59:18.596Z,99.90
2018-08-09T05:01:48.786Z,99.90
2018-08-09T05:04:20.480Z,99.90
2018-08-09T05:06:51.276Z,99.90
2018-08-09T05:09:21.957Z,99.90
2018-08-09T05:11:52.405Z,99.90
2018-08-09T05:14:24.187Z,99.90
2018-08-09T05:16:55.546Z,99.90
2018-08-09T05:19:28.007Z,99.90
2018-08-09T05:21:59.207Z,99.90
2018-08-09T05:24:29.629Z,99.90
2018-08-09T05:26:59.827Z,99.90
2018-08-09T05:29:30.377Z,99.90
2018-08-09T05:32:01.456Z,99.90
2018-08-09T05:34:35.706Z,99.90
2018-08-09T05:37:06.456Z,99.90
2018-08-09T05:39:37.696Z,99.90
2018-08-09T05:42:07.777Z,99.90
2018-08-09T05:44:38.057Z,99.90
2018-08-09T05:47:08.517Z,99.90
2018-08-09T05:49:44.369Z,99.90
2018-08-09T05:52:20.661Z,99.90
2018-08-09T05:55:14.057Z,99.90
2018-08-09T05:58:08.078Z,99.90
2018-08-09T06:00:38.883Z,99.90
2018-08-09T06:03:08.725Z,99.90
2018-08-09T06:05:38.533Z,99.90
2018-08-09T06:08:08.344Z,99.90
2018-08-09T06:10:37.823Z,99.90
2018-08-09T06:13:07.563Z,99.90
2018-08-09T06:15:37.244Z,99.90
2018-08-09T06:18:07.364Z,99.90
2018-08-09T06:20:37.064Z,99.90
2018-08-09T06:23:06.445Z,99.90
2018-08-09T06:25:40.160Z,99.90
2018-08-09T06:28:09.853Z,99.90
2018-08-09T06:30:39.314Z,99.90
2018-08-09T06:33:09.178Z,99.90
2018-08-09T06:35:38.978Z,99.90
2018-08-09T06:38:08.918Z,99.90
2018-08-09T06:40:40.398Z,99.90
2018-08-09T06:43:10.118Z,99.90
2018-08-09T06:45:39.759Z,99.90
2018-08-09T06:48:09.719Z,99.90
2018-08-09T06:50:40.940Z,99.90
2018-08-09T06:53:12.269Z,99.90
2018-08-09T06:55:42.138Z,99.70
2018-08-09T06:58:11.738Z,99.20
2018-08-09T07:00:41.644Z,98.40
2018-08-09T07:03:11.217Z,97.90
2018-08-09T07:05:40.918Z,97.40
2018-08-09T07:08:10.638Z,97.60
2018-08-09T07:10:40.359Z,97.10
2018-08-09T07:13:09.996Z,96.30
2018-08-09T07:15:39.700Z,95.50
2018-08-09T07:18:09.368Z,95.50
2018-08-09T07:20:39.020Z,94.80
2018-08-09T07:23:08.782Z,95.00
2018-08-09T07:25:38.499Z,94.00
2018-08-09T07:28:08.742Z,93.10
2018-08-09T07:30:38.762Z,93.10
2018-08-09T07:33:08.279Z,91.60
2018-08-09T07:35:37.888Z,91.40
2018-08-09T07:38:07.760Z,91.50
2018-08-09T07:40:37.484Z,92.10
2018-08-09T07:43:07.425Z,91.80
2018-08-09T07:45:37.082Z,91.40
2018-08-09T07:48:07.091Z,90.50
2018-08-09T07:50:36.848Z,91.40
2018-08-09T07:53:06.465Z,90.90
2018-08-09T07:55:36.345Z,90.70
2018-08-09T07:58:06.083Z,90.70
2018-08-09T08:00:35.843Z,92.00
2018-08-09T08:03:06.202Z,91.50
2018-08-09T08:05:36.365Z,88.30
2018-08-09T08:08:06.118Z,89.10
2018-08-09T08:10:35.700Z,88.10
2018-08-09T08:13:05.961Z,86.50
2018-08-09T08:15:35.740Z,87.40
2018-08-09T08:18:06.326Z,88.80
2018-08-09T08:20:36.091Z,88.10
2018-08-09T08:23:05.980Z,84.10
2018-08-09T08:25:35.700Z,85.40
2018-08-09T08:28:05.762Z,84.50
2018-08-09T08:30:35.541Z,84.00
2018-08-09T08:33:05.301Z,84.10
2018-08-09T08:35:35.024Z,83.60
2018-08-09T08:38:04.900Z,83.90
2018-08-09T08:40:34.562Z,81.80
2018-08-09T08:43:04.221Z,82.30
2018-08-09T08:45:34.000Z,79.00
2018-08-09T08:48:04.212Z,78.00
2018-08-09T08:50:33.883Z,79.50
2018-08-09T08:53:05.006Z,81.10
2018-08-09T08:55:34.643Z,80.60
2018-08-09T08:58:04.511Z,79.40
2018-08-09T09:00:34.147Z,79.80
2018-08-09T09:03:03.719Z,81.80
2018-08-09T09:05:33.818Z,79.50
2018-08-09T09:08:03.599Z,77.10
2018-08-09T09:10:33.338Z,74.70
2018-08-09T09:13:03.081Z,77.60
2018-08-09T09:15:32.840Z,73.30
2018-08-09T09:18:02.799Z,76.60
2018-08-09T09:20:39.424Z,78.00
2018-08-09T09:23:09.280Z,75.20
2018-08-09T09:25:39.299Z,76.10
2018-08-09T09:28:08.963Z,72.50
2018-08-09T09:30:38.727Z,74.00
2018-08-09T09:33:08.416Z,74.60
2018-08-09T09:35:38.220Z,73.50
2018-08-09T09:38:08.000Z,76.60
2018-08-09T09:40:37.920Z,74.40
2018-08-09T09:43:09.399Z,73.00
2018-08-09T09:45:39.585Z,69.30
2018-08-09T09:48:09.320Z,66.50
2018-08-09T09:50:39.083Z,63.20
2018-08-09T09:53:09.206Z,67.90
2018-08-09T09:55:39.022Z,71.30
2018-08-09T09:58:08.747Z,67.20
2018-08-09T10:00:43.626Z,68.70
2018-08-09T10:03:13.540Z,63.90
2018-08-09T10:05:44.346Z,65.20
2018-08-09T10:08:14.080Z,67.10
2018-08-09T10:10:43.901Z,70.50
2018-08-09T10:13:14.900Z,65.60
2018-08-09T10:15:44.704Z,67.90
2018-08-09T10:18:14.447Z,66.00
2018-08-09T10:20:44.399Z,64.60
2018-08-09T10:23:14.819Z,63.50
2018-08-09T10:25:44.710Z,62.20
2018-08-09T10:28:14.901Z,62.00
2018-08-09T10:30:46.242Z,62.40
2018-08-09T10:33:15.944Z,64.90
2018-08-09T10:35:45.619Z,65.70
2018-08-09T10:38:15.744Z,63.70
2018-08-09T10:40:45.363Z,62.10
2018-08-09T10:43:14.963Z,62.50
2018-08-09T10:45:45.143Z,61.80
2018-08-09T10:48:15.723Z,64.80
2018-08-09T10:50:45.434Z,65.60
2018-08-09T10:53:15.221Z,63.30
2018-08-09T10:55:44.909Z,65.50
2018-08-09T10:58:14.639Z,62.60
2018-08-09T11:00:44.442Z,61.30
2018-08-09T11:03:14.503Z,62.20
2018-08-09T11:05:44.405Z,65.50
2018-08-09T11:08:14.102Z,64.90
2018-08-09T11:10:44.201Z,61.80
2018-08-09T11:13:13.961Z,60.70
2018-08-09T11:15:44.321Z,62.40
2018-08-09T11:18:14.120Z,62.40
2018-08-09T11:20:43.820Z,61.20
2018-08-09T11:23:13.600Z,62.90
2018-08-09T11:25:43.340Z,59.80
2018-08-09T11:28:13.162Z,60.70
2018-08-09T11:30:43.320Z,58.70
2018-08-09T11:33:13.562Z,59.10
2018-08-09T11:35:43.388Z,62.10
2018-08-09T11:38:12.992Z,59.00
2018-08-09T11:40:43.240Z,60.70
2018-08-09T11:43:12.781Z,60.30
2018-08-09T11:45:42.420Z,62.00
2018-08-09T11:48:12.221Z,64.00
2018-08-09T11:50:41.981Z,61.90
2018-08-09T11:53:12.122Z,60.80
2018-08-09T11:55:42.160Z,64.40
2018-08-09T11:58:12.862Z,65.50
2018-08-09T12:00:46.880Z,60.60
2018-08-09T12:03:16.828Z,61.30
2018-08-09T12:05:47.241Z,60.10
2018-08-09T12:08:17.021Z,59.90
2018-08-09T12:10:46.732Z,60.50
2018-08-09T12:13:17.167Z,59.80
2018-08-09T12:15:47.041Z,60.70
2018-08-09T12:18:16.941Z,61.80
2018-08-09T12:20:46.897Z,60.70
2018-08-09T12:23:21.660Z,60.70
2018-08-09T12:25:51.728Z,60.90
2018-08-09T12:28:21.520Z,59.90
2018-08-09T12:30:51.960Z,63.30
2018-08-09T12:33:21.900Z,60.00
2018-08-09T12:35:51.779Z,61.80
2018-08-09T12:38:21.884Z,63.10
2018-08-09T12:40:51.879Z,61.30
2018-08-09T12:43:21.605Z,62.00
2018-08-09T12:45:51.539Z,62.90
2018-08-09T12:48:21.440Z,61.60
2018-08-09T12:50:51.259Z,59.90
2018-08-09T12:53:21.040Z,61.80
2018-08-09T12:55:50.781Z,63.20
2018-08-09T12:58:21.161Z,61.10
2018-08-09T13:00:51.121Z,59.50
2018-08-09T13:03:20.961Z,58.40
2018-08-09T13:05:50.767Z,59.80
2018-08-09T13:08:20.768Z,61.30
2018-08-09T13:10:50.622Z,60.80
2018-08-09T13:13:20.642Z,60.20
2018-08-09T13:15:50.444Z,60.60
2018-08-09T13:18:20.507Z,63.20
2018-08-09T13:20:50.424Z,61.20
2018-08-09T13:23:20.261Z,62.30
2018-08-09T13:25:51.363Z,62.70
2018-08-09T13:28:21.786Z,63.80
2018-08-09T13:30:51.605Z,62.80
2018-08-09T13:33:21.623Z,63.80
2018-08-09T13:35:51.466Z,62.80
2018-08-09T13:38:21.726Z,62.10
2018-08-09T13:40:51.563Z,62.50
2018-08-09T13:43:21.412Z,62.30
2018-08-09T13:45:52.141Z,62.30
2018-08-09T13:48:22.121Z,62.90
2018-08-09T13:50:51.739Z,62.30
2018-08-09T13:53:21.743Z,61.60
2018-08-09T13:55:51.787Z,62.20
2018-08-09T13:58:21.709Z,61.10
2018-08-09T14:00:51.583Z,61.50
2018-08-09T14:03:21.287Z,60.10
2018-08-09T14:05:51.104Z,60.50
2018-08-09T14:08:21.086Z,60.90
2018-08-09T14:10:51.108Z,60.90
2018-08-09T14:13:21.023Z,61.20
2018-08-09T14:15:50.770Z,62.60
2018-08-09T14:18:20.683Z,62.20
2018-08-09T14:20:50.622Z,59.80
2018-08-09T14:23:21.615Z,59.90
2018-08-09T14:25:52.508Z,59.50
2018-08-09T14:28:22.482Z,60.60
2018-08-09T14:30:52.524Z,61.80
2018-08-09T14:33:22.665Z,61.70
2018-08-09T14:35:52.783Z,58.20
2018-08-09T14:38:22.483Z,58.30
2018-08-09T14:40:52.245Z,58.90
2018-08-09T14:46:00.165Z,57.50
2018-08-09T14:48:30.125Z,58.10
2018-08-09T14:51:00.206Z,59.00
2018-08-09T14:56:04.244Z,57.70
2018-08-09T14:58:34.244Z,58.20
2018-08-09T15:01:04.089Z,57.60
2018-08-09T15:03:34.009Z,59.30
2018-08-09T15:06:03.849Z,58.80
2018-08-09T15:08:33.950Z,56.70
2018-08-09T15:11:04.049Z,57.20
2018-08-09T15:13:34.129Z,57.10
2018-08-09T15:16:04.570Z,56.50
2018-08-09T15:18:34.538Z,55.70
2018-08-09T15:21:04.625Z,56.50
2018-08-09T15:23:34.744Z,56.30
2018-08-09T15:26:04.785Z,58.00
2018-08-09T15:28:34.628Z,56.90
2018-08-09T15:31:04.471Z,57.70
2018-08-09T15:33:34.447Z,56.20
2018-08-09T15:36:04.466Z,55.90
2018-08-09T15:38:34.127Z,55.70
2018-08-09T15:41:04.003Z,55.70
2018-08-09T15:43:33.765Z,55.90
2018-08-09T15:46:03.942Z,56.00
2018-08-09T15:48:34.052Z,56.70
2018-08-09T15:51:04.046Z,56.40
2018-08-09T15:53:34.484Z,56.40
2018-08-09T15:56:05.124Z,57.70
2018-08-09T15:58:34.864Z,57.70
2018-08-09T16:01:07.463Z,57.60
2018-08-09T16:03:37.700Z,57.50
2018-08-09T16:06:07.601Z,57.30
2018-08-09T16:08:37.490Z,57.80
2018-08-09T16:11:07.560Z,57.40
2018-08-09T16:13:41.721Z,57.90
2018-08-09T16:16:11.702Z,58.00
2018-08-09T16:18:45.761Z,58.40
2018-08-09T16:21:15.624Z,58.00
2018-08-09T16:23:45.645Z,57.70
2018-08-09T16:28:16.343Z,58.80
2018-08-09T16:30:46.325Z,58.80
2018-08-09T16:33:16.244Z,59.20
2018-08-09T16:35:45.924Z,59.60
2018-08-09T16:38:15.983Z,59.60
2018-08-09T16:40:46.064Z,59.70
2018-08-09T16:43:15.863Z,61.20
2018-08-09T16:45:45.740Z,60.70
2018-08-09T16:48:15.523Z,61.00
2018-08-09T16:50:45.471Z,60.70
2018-08-09T16:53:15.063Z,61.50
2018-08-09T16:55:44.882Z,61.60
2018-08-09T16:58:14.503Z,62.20
2018-08-09T17:00:48.593Z,62.10
2018-08-09T17:03:18.246Z,60.50
2018-08-09T17:05:48.116Z,63.00
2018-08-09T17:08:17.893Z,63.20
2018-08-09T17:10:47.642Z,63.50
2018-08-09T17:13:17.481Z,64.00
2018-08-09T17:15:47.381Z,64.30
2018-08-09T17:18:21.281Z,64.30
2018-08-09T17:20:51.161Z,65.30
2018-08-09T17:23:20.821Z,64.90
2018-08-09T17:25:50.561Z,65.80
2018-08-09T17:28:20.181Z,65.90
2018-08-09T17:30:49.941Z,65.80
2018-08-09T17:33:19.541Z,66.40
2018-08-09T17:35:49.280Z,66.60
2018-08-09T17:38:23.076Z,67.00
2018-08-09T17:40:52.800Z,68.00
2018-08-09T17:43:22.676Z,67.70
2018-08-09T17:45:52.421Z,68.10
2018-08-09T17:48:22.162Z,68.90
2018-08-09T17:50:51.987Z,68.30
2018-08-09T17:53:21.548Z,68.70
2018-08-09T17:55:51.340Z,69.20
2018-08-09T17:58:25.037Z,69.50
2018-08-09T18:00:55.406Z,71.10
2018-08-09T18:03:25.167Z,70.70
2018-08-09T18:05:54.847Z,71.20
2018-08-09T18:08:24.765Z,72.10
2018-08-09T18:10:54.460Z,72.90
2018-08-09T18:13:24.200Z,73.90
2018-08-09T18:15:53.800Z,74.80
2018-08-09T18:18:24.360Z,75.60
2018-08-09T18:20:54.021Z,76.30
2018-08-09T18:23:23.810Z,76.60
2018-08-09T18:25:53.622Z,77.40
2018-08-09T18:28:23.361Z,77.90
2018-08-09T18:30:53.166Z,78.60
2018-08-09T18:33:22.861Z,79.10
2018-08-09T18:35:52.440Z,79.70
2018-08-09T18:38:22.300Z,80.80
2018-08-09T18:40:51.922Z,80.80
2018-08-09T18:43:21.640Z,81.40
2018-08-09T18:45:52.040Z,82.10
2018-08-09T18:48:21.748Z,82.70
2018-08-09T18:50:51.839Z,83.10
2018-08-09T18:53:25.559Z,83.60
2018-08-09T18:55:55.619Z,84.10
2018-08-09T18:58:25.339Z,85.20
2018-08-09T19:00:55.271Z,85.10
2018-08-09T19:03:25.223Z,85.30
2018-08-09T19:05:54.979Z,85.60
2018-08-09T19:08:24.719Z,86.30
2018-08-09T19:10:54.379Z,86.80
2018-08-09T19:13:24.638Z,87.20
2018-08-09T19:15:54.598Z,87.40
2018-08-09T19:18:24.879Z,88.00
2018-08-09T19:20:54.699Z,88.40
2018-08-09T19:23:24.339Z,88.90
2018-08-09T19:25:53.938Z,89.10
2018-08-09T19:28:23.978Z,89.50
2018-08-09T19:30:53.691Z,89.90
2018-08-09T19:33:23.337Z,90.10
2018-08-09T19:35:53.029Z,90.30
2018-08-09T19:38:22.824Z,90.40
2018-08-09T19:40:52.592Z,90.60
2018-08-09T19:43:22.504Z,90.70
2018-08-09T19:45:52.263Z,90.80
2018-08-09T19:48:22.033Z,91.00
2018-08-09T19:50:52.319Z,91.10
2018-08-09T19:53:22.058Z,91.20
2018-08-09T19:55:51.718Z,91.20
2018-08-09T19:58:21.560Z,91.30
2018-08-09T20:00:51.199Z,91.40
2018-08-09T20:03:21.305Z,91.90
2018-08-09T20:05:51.522Z,91.70
2018-08-09T20:08:21.564Z,91.80
2018-08-09T20:10:51.462Z,92.00
2018-08-09T20:13:21.322Z,92.30
2018-08-09T20:15:50.963Z,92.60
2018-08-09T20:18:20.846Z,92.70
2018-08-09T20:20:50.542Z,93.00
2018-08-09T20:23:20.279Z,93.30
2018-08-09T20:25:49.878Z,93.60
2018-08-09T20:28:19.458Z,94.10
2018-08-09T20:30:49.122Z,94.10
2018-08-09T20:33:18.963Z,94.40
2018-08-09T20:35:49.005Z,94.70
2018-08-09T20:41:46.116Z,95.20
2018-08-09T20:44:50.181Z,96.00
2018-08-09T20:47:21.386Z,96.10
2018-08-09T20:49:51.200Z,96.40
2018-08-09T20:52:25.119Z,96.60
2018-08-09T20:54:55.549Z,96.90
2018-08-09T20:57:25.627Z,97.20
2018-08-09T20:59:57.029Z,97.40
2018-08-09T21:02:27.025Z,97.80
2018-08-09T21:04:57.203Z,98.00
2018-08-09T21:07:26.967Z,98.00
2018-08-09T21:09:56.847Z,98.10
2018-08-09T21:12:26.890Z,98.30
2018-08-09T21:14:57.022Z,98.50
2018-08-09T21:17:26.721Z,98.70
2018-08-09T21:19:56.882Z,98.70
2018-08-09T21:22:26.930Z,99.00
2018-08-09T21:24:56.724Z,98.90
2018-08-09T21:27:26.444Z,99.30
2018-08-09T21:29:56.165Z,99.10
2018-08-09T21:32:26.885Z,99.10
2018-08-09T21:34:57.322Z,99.20
2018-08-09T21:37:27.101Z,99.30
2018-08-09T21:39:56.841Z,99.20
2018-08-09T21:42:28.165Z,99.90
2018-08-09T21:45:02.265Z,99.90
2018-08-09T21:47:32.201Z,99.90
2018-08-09T21:50:01.941Z,99.90
2018-08-09T21:52:31.840Z,99.90
2018-08-09T21:55:01.754Z,99.90
2018-08-09T21:57:31.381Z,99.90
2018-08-09T22:00:05.050Z,99.90
2018-08-09T22:02:38.781Z,99.90
2018-08-09T22:05:13.301Z,99.90
2018-08-09T22:07:48.481Z,99.90
2018-08-09T22:12:26.015Z,99.90
2018-08-09T22:15:00.578Z,99.90
2018-08-09T22:17:35.419Z,99.90
2018-08-09T22:20:10.379Z,99.90
2018-08-09T22:22:40.799Z,99.90
2018-08-09T22:25:15.219Z,99.90
2018-08-09T22:27:44.859Z,99.90
2018-08-09T22:30:16.758Z,99.90
2018-08-09T22:32:46.305Z,99.90
2018-08-09T22:35:16.042Z,99.90
2018-08-09T22:37:45.611Z,99.90
2018-08-09T22:40:15.458Z,99.90
2018-08-09T22:42:49.360Z,99.90
2018-08-09T22:45:19.081Z,99.90
2018-08-09T22:47:48.687Z,99.90
2018-08-09T22:50:18.379Z,99.90
2018-08-09T22:52:47.901Z,99.90
2018-08-09T22:55:17.655Z,99.90
2018-08-09T22:57:47.127Z,99.90
2018-08-09T23:00:23.755Z,99.90
2018-08-09T23:02:53.501Z,99.90
2018-08-09T23:05:27.539Z,99.90
2018-08-09T23:07:57.238Z,99.90
2018-08-09T23:10:26.778Z,99.90
2018-08-09T23:12:56.480Z,99.90
2018-08-09T23:15:26.479Z,99.90
2018-08-09T23:17:56.131Z,99.90
2018-08-09T23:20:25.823Z,99.90
2018-08-09T23:22:55.702Z,99.90
2018-08-09T23:25:25.440Z,99.90
2018-08-09T23:27:55.259Z,99.90
2018-08-09T23:30:25.120Z,99.90
2018-08-09T23:32:54.960Z,99.90
2018-08-09T23:35:25.199Z,99.90
2018-08-09T23:37:54.879Z,99.90
2018-08-09T23:40:24.720Z,99.90
2018-08-09T23:42:54.439Z,99.90
2018-08-09T23:45:24.439Z,99.90
2018-08-09T23:47:54.320Z,99.90
2018-08-09T23:50:24.239Z,99.90
2018-08-09T23:52:54.125Z,99.90
2018-08-09T23:55:24.299Z,99.90
2018-08-09T23:57:54.059Z,99.90
